createdAt,value
2022-11-27T00:01:19.286Z,73.90
2022-11-27T00:03:46.717Z,73.90
2022-11-27T00:06:16.512Z,73.90
2022-11-27T00:08:44.744Z,73.90
2022-11-27T00:11:16.051Z,73.90
2022-11-27T00:13:43.680Z,73.80
2022-11-27T00:16:12.129Z,73.70
2022-11-27T00:18:40.245Z,73.70
2022-11-27T00:21:13.682Z,73.50
2022-11-27T00:23:41.394Z,73.60
2022-11-27T00:26:09.542Z,73.60
2022-11-27T00:28:38.072Z,73.60
2022-11-27T00:31:08.951Z,73.70
2022-11-27T00:33:37.710Z,73.50
2022-11-27T00:36:05.947Z,73.50
2022-11-27T00:38:38.475Z,73.50
2022-11-27T00:41:14.984Z,73.30
2022-11-27T00:43:44.842Z,73.30
2022-11-27T00:46:29.070Z,73.30
2022-11-27T00:48:58.312Z,73.30
2022-11-27T00:51:27.345Z,73.30
2022-11-27T00:53:55.516Z,73.20
2022-11-27T00:56:31.618Z,73.30
2022-11-27T00:58:59.237Z,73.20
2022-11-27T01:01:39.707Z,73.20
2022-11-27T01:04:09.178Z,73.20
2022-11-27T01:06:38.470Z,73.20
2022-11-27T01:09:05.927Z,73.30
2022-11-27T01:11:35.134Z,73.30
2022-11-27T01:14:06.125Z,73.30
2022-11-27T01:16:34.177Z,73.30
2022-11-27T01:19:02.341Z,73.40
2022-11-27T01:21:32.418Z,73.30
2022-11-27T01:24:01.065Z,73.30
2022-11-27T01:26:29.229Z,73.30
2022-11-27T01:28:58.098Z,73.30
2022-11-27T01:31:30.945Z,73.30
2022-11-27T01:34:12.945Z,73.30
2022-11-27T01:36:40.660Z,73.20
2022-11-27T01:39:08.136Z,73.10
2022-11-27T01:41:39.973Z,73.10
2022-11-27T01:44:25.484Z,73.10
2022-11-27T01:46:54.959Z,72.90
2022-11-27T01:49:41.275Z,72.80
2022-11-27T01:52:16.127Z,72.80
2022-11-27T01:54:50.655Z,72.80
2022-11-27T01:57:43.634Z,72.90
2022-11-27T02:00:14.158Z,73.00
2022-11-27T02:02:43.417Z,73.00
2022-11-27T02:05:14.503Z,72.80
2022-11-27T02:07:41.844Z,72.70
2022-11-27T02:10:09.640Z,72.70
2022-11-27T02:12:59.851Z,72.70
2022-11-27T02:15:45.007Z,72.60
2022-11-27T02:18:38.692Z,72.50
2022-11-27T02:21:33.871Z,72.30
2022-11-27T02:24:26.229Z,72.20
2022-11-27T02:27:21.165Z,72.10
2022-11-27T02:29:54.459Z,72.00
2022-11-27T02:32:27.059Z,71.90
2022-11-27T02:35:18.029Z,71.80
2022-11-27T02:37:58.514Z,71.50
2022-11-27T02:40:44.195Z,71.30
2022-11-27T02:43:14.685Z,71.30
2022-11-27T02:45:48.223Z,71.20
2022-11-27T02:48:18.425Z,71.30
2022-11-27T02:50:46.676Z,71.20
2022-11-27T02:53:26.737Z,71.10
2022-11-27T02:55:56.744Z,70.90
2022-11-27T02:58:28.313Z,70.80
2022-11-27T03:00:57.743Z,71.10
2022-11-27T03:03:30.167Z,71.20
2022-11-27T03:06:05.977Z,71.20
2022-11-27T03:08:51.257Z,71.20
2022-11-27T03:11:18.377Z,71.10
2022-11-27T03:13:50.630Z,70.90
2022-11-27T03:16:55.439Z,71.00
2022-11-27T03:19:33.431Z,71.00
2022-11-27T03:22:02.604Z,71.20
2022-11-27T03:24:32.160Z,71.30
2022-11-27T03:26:59.735Z,71.40
2022-11-27T03:29:26.689Z,71.20
2022-11-27T03:31:55.396Z,71.10
2022-11-27T03:34:22.717Z,72.10
2022-11-27T03:36:49.977Z,71.40
2022-11-27T03:39:17.272Z,71.50
2022-11-27T03:42:34.936Z,71.50
2022-11-27T03:45:31.413Z,71.40
2022-11-27T03:48:17.824Z,71.40
2022-11-27T03:51:05.934Z,71.30
2022-11-27T03:53:58.246Z,71.40
2022-11-27T03:56:44.125Z,71.30
2022-11-27T03:59:18.128Z,71.10
2022-11-27T04:01:45.269Z,71.10
2022-11-27T04:04:12.518Z,71.00
2022-11-27T04:06:40.260Z,71.10
2022-11-27T04:09:07.493Z,71.00
2022-11-27T04:11:34.954Z,71.00
2022-11-27T04:14:02.672Z,70.90
2022-11-27T04:16:29.814Z,70.90
2022-11-27T04:18:57.793Z,70.70
2022-11-27T04:21:24.842Z,70.60
2022-11-27T04:23:51.841Z,70.30
2022-11-27T04:26:19.010Z,70.20
2022-11-27T04:28:46.255Z,70.10
2022-11-27T04:31:13.590Z,70.10
2022-11-27T04:33:40.702Z,70.10
2022-11-27T04:36:07.935Z,69.90
2022-11-27T04:38:38.035Z,69.80
2022-11-27T04:41:05.239Z,69.80
2022-11-27T04:43:34.979Z,69.80
2022-11-27T04:46:02.048Z,69.90
2022-11-27T04:48:29.233Z,69.80
2022-11-27T04:50:56.310Z,69.80
2022-11-27T04:53:27.999Z,69.90
2022-11-27T04:55:55.348Z,69.90
2022-11-27T04:58:23.156Z,69.90
2022-11-27T05:00:50.956Z,69.80
2022-11-27T05:03:17.992Z,69.80
2022-11-27T05:05:45.045Z,69.70
2022-11-27T05:08:12.147Z,69.90
2022-11-27T05:10:39.160Z,69.90
2022-11-27T05:13:06.368Z,70.00
2022-11-27T05:15:36.911Z,70.00
2022-11-27T05:18:03.992Z,70.40
2022-11-27T05:20:30.963Z,70.20
2022-11-27T05:22:57.943Z,70.20
2022-11-27T05:25:25.329Z,70.30
2022-11-27T05:27:53.123Z,70.10
2022-11-27T05:30:20.016Z,70.10
2022-11-27T05:32:47.045Z,70.10
2022-11-27T05:35:13.949Z,70.00
2022-11-27T05:37:40.935Z,70.20
2022-11-27T05:40:09.693Z,70.00
2022-11-27T05:42:36.685Z,70.00
2022-11-27T05:45:04.541Z,70.10
2022-11-27T05:47:31.848Z,69.90
2022-11-27T05:49:58.813Z,69.80
2022-11-27T05:52:25.837Z,69.90
2022-11-27T05:54:55.162Z,69.70
2022-11-27T05:57:22.376Z,69.60
2022-11-27T05:59:49.523Z,69.60
2022-11-27T06:02:21.580Z,69.70
2022-11-27T06:04:49.663Z,69.60
2022-11-27T06:07:16.707Z,69.50
2022-11-27T06:09:44.591Z,69.40
2022-11-27T06:12:11.781Z,69.50
2022-11-27T06:14:39.020Z,69.70
2022-11-27T06:17:06.227Z,69.70
2022-11-27T06:19:34.028Z,69.40
2022-11-27T06:22:01.247Z,69.30
2022-11-27T06:24:28.236Z,69.30
2022-11-27T06:26:55.228Z,69.40
2022-11-27T06:29:22.124Z,69.30
2022-11-27T06:31:49.182Z,69.10
2022-11-27T06:34:17.058Z,69.20
2022-11-27T06:36:44.007Z,69.10
2022-11-27T06:39:12.056Z,69.30
2022-11-27T06:41:39.190Z,69.40
2022-11-27T06:44:06.269Z,69.60
2022-11-27T06:46:33.348Z,70.10
2022-11-27T06:49:01.239Z,70.40
2022-11-27T06:51:30.679Z,70.60
2022-11-27T06:54:00.260Z,70.60
2022-11-27T06:56:31.252Z,70.80
2022-11-27T06:59:01.952Z,70.90
2022-11-27T07:01:30.916Z,71.10
2022-11-27T07:03:58.962Z,71.10
2022-11-27T07:06:27.207Z,71.10
2022-11-27T07:08:55.720Z,71.10
2022-11-27T07:11:25.611Z,70.90
2022-11-27T07:13:55.885Z,70.80
2022-11-27T07:16:23.778Z,70.80
2022-11-27T07:18:59.809Z,70.80
2022-11-27T07:21:26.930Z,71.50
2022-11-27T07:23:53.986Z,71.80
2022-11-27T07:26:23.889Z,73.00
2022-11-27T07:28:51.339Z,72.80
2022-11-27T07:31:22.918Z,71.80
2022-11-27T07:33:52.553Z,70.50
2022-11-27T07:36:29.370Z,69.40
2022-11-27T07:38:58.235Z,68.60
2022-11-27T07:41:32.439Z,68.20
2022-11-27T07:44:11.347Z,68.50
2022-11-27T07:46:40.261Z,69.70
2022-11-27T07:49:07.332Z,68.60
2022-11-27T07:51:34.543Z,68.40
2022-11-27T07:54:01.607Z,68.00
2022-11-27T07:56:28.605Z,67.40
2022-11-27T07:58:57.868Z,67.20
2022-11-27T08:01:24.993Z,67.20
2022-11-27T08:03:52.004Z,67.00
2022-11-27T08:06:25.058Z,66.80
2022-11-27T08:08:53.589Z,66.90
2022-11-27T08:11:30.431Z,67.10
2022-11-27T08:14:00.280Z,67.40
2022-11-27T08:16:27.939Z,68.40
2022-11-27T08:18:55.175Z,70.70
2022-11-27T08:21:22.667Z,71.10
2022-11-27T08:23:50.896Z,71.60
2022-11-27T08:26:19.189Z,71.80
2022-11-27T08:28:46.362Z,71.10
2022-11-27T08:31:15.181Z,70.40
2022-11-27T08:33:42.226Z,69.20
2022-11-27T08:36:13.645Z,68.30
2022-11-27T08:38:44.493Z,67.50
2022-11-27T08:41:11.563Z,66.30
2022-11-27T08:43:38.566Z,65.20
2022-11-27T08:46:06.969Z,64.10
2022-11-27T08:48:34.686Z,63.20
2022-11-27T08:51:11.445Z,62.90
2022-11-27T08:53:39.350Z,62.50
2022-11-27T08:56:18.457Z,61.30
2022-11-27T08:58:46.614Z,59.70
2022-11-27T09:01:18.354Z,59.40
2022-11-27T09:03:47.764Z,58.80
2022-11-27T09:06:19.113Z,58.20
2022-11-27T09:08:46.178Z,57.90
2022-11-27T09:11:20.216Z,57.40
2022-11-27T09:13:48.190Z,57.10
2022-11-27T09:16:17.513Z,56.10
2022-11-27T09:18:50.192Z,55.80
2022-11-27T09:21:19.604Z,55.50
2022-11-27T09:23:46.878Z,55.60
2022-11-27T09:26:16.735Z,54.30
2022-11-27T09:28:44.889Z,53.30
2022-11-27T09:31:14.305Z,52.00
2022-11-27T09:33:41.950Z,50.90
2022-11-27T09:36:12.187Z,50.20
2022-11-27T09:38:39.233Z,50.10
2022-11-27T09:41:45.131Z,49.90
2022-11-27T09:44:19.085Z,49.60
2022-11-27T09:46:46.180Z,48.40
2022-11-27T09:49:30.268Z,48.60
2022-11-27T09:52:28.643Z,48.20
2022-11-27T09:55:04.634Z,48.30
2022-11-27T09:57:35.209Z,48.80
2022-11-27T10:00:13.364Z,48.70
2022-11-27T10:02:43.132Z,49.00
2022-11-27T10:05:37.459Z,47.90
2022-11-27T10:08:28.896Z,46.90
2022-11-27T10:10:56.045Z,46.50
2022-11-27T10:13:36.380Z,47.30
2022-11-27T10:16:18.569Z,46.90
2022-11-27T10:19:03.646Z,47.40
2022-11-27T10:21:53.094Z,46.60
2022-11-27T10:24:24.517Z,45.20
2022-11-27T10:26:55.026Z,45.50
2022-11-27T10:29:32.796Z,45.30
2022-11-27T10:32:05.269Z,44.20
2022-11-27T10:34:40.651Z,44.70
2022-11-27T10:37:19.421Z,44.80
2022-11-27T10:39:50.529Z,44.50
2022-11-27T10:42:33.381Z,44.50
2022-11-27T10:45:19.537Z,44.50
2022-11-27T10:47:49.270Z,44.70
2022-11-27T10:50:17.849Z,42.40
2022-11-27T10:52:52.488Z,44.30
2022-11-27T10:55:48.512Z,44.30
2022-11-27T10:58:36.622Z,44.00
2022-11-27T11:01:09.655Z,43.90
2022-11-27T11:03:37.477Z,44.20
2022-11-27T11:06:24.855Z,44.70
2022-11-27T11:09:12.567Z,43.50
2022-11-27T11:11:39.784Z,43.30
2022-11-27T11:14:24.853Z,42.90
2022-11-27T11:16:53.905Z,42.20
2022-11-27T11:19:39.839Z,42.50
2022-11-27T11:22:16.518Z,42.20
2022-11-27T11:24:54.027Z,41.70
2022-11-27T11:27:26.509Z,41.30
2022-11-27T11:29:56.585Z,40.40
2022-11-27T11:32:40.758Z,41.10
2022-11-27T11:35:37.178Z,41.30
2022-11-27T11:38:07.804Z,41.70
2022-11-27T11:40:37.179Z,41.80
2022-11-27T11:43:10.024Z,41.70
2022-11-27T11:45:47.323Z,40.50
2022-11-27T11:48:26.655Z,40.90
2022-11-27T11:51:01.695Z,40.30
2022-11-27T11:53:45.573Z,40.30
2022-11-27T11:56:18.715Z,40.50
2022-11-27T11:58:56.657Z,40.80
2022-11-27T12:01:45.522Z,41.00
2022-11-27T12:04:40.143Z,41.40
2022-11-27T12:07:22.181Z,42.40
2022-11-27T12:10:28.829Z,43.00
2022-11-27T12:13:13.972Z,43.50
2022-11-27T12:15:47.119Z,44.20
2022-11-27T12:18:33.654Z,44.40
2022-11-27T12:21:15.455Z,44.70
2022-11-27T12:24:01.373Z,45.10
2022-11-27T12:27:06.102Z,45.20
2022-11-27T12:29:39.541Z,45.00
2022-11-27T12:32:26.379Z,45.50
2022-11-27T12:34:53.639Z,46.10
2022-11-27T12:37:32.809Z,46.10
2022-11-27T12:40:15.168Z,46.50
2022-11-27T12:43:00.436Z,46.70
2022-11-27T12:45:39.043Z,46.90
2022-11-27T12:48:15.748Z,47.30
2022-11-27T12:51:03.580Z,47.50
2022-11-27T12:53:41.080Z,47.40
2022-11-27T12:56:26.971Z,47.00
2022-11-27T12:58:59.200Z,47.40
2022-11-27T13:01:36.503Z,47.60
2022-11-27T13:04:09.650Z,48.00
2022-11-27T13:06:48.287Z,48.30
2022-11-27T13:09:49.870Z,48.70
2022-11-27T13:12:46.229Z,48.90
2022-11-27T13:15:41.553Z,49.10
2022-11-27T13:18:32.694Z,49.40
2022-11-27T13:21:02.444Z,49.60
2022-11-27T13:23:33.434Z,50.00
2022-11-27T13:26:05.914Z,50.10
2022-11-27T13:28:47.870Z,50.40
2022-11-27T13:31:23.898Z,50.70
2022-11-27T13:33:52.404Z,50.80
2022-11-27T13:36:32.108Z,50.80
2022-11-27T13:39:02.771Z,50.80
2022-11-27T13:41:40.848Z,51.20
2022-11-27T13:44:27.762Z,51.30
2022-11-27T13:46:59.183Z,51.40
2022-11-27T13:49:28.319Z,51.60
2022-11-27T13:52:05.890Z,51.70
2022-11-27T13:54:32.919Z,52.00
2022-11-27T13:57:19.885Z,52.20
2022-11-27T13:59:59.395Z,52.30
2022-11-27T14:02:44.195Z,52.50
2022-11-27T14:05:12.965Z,52.60
2022-11-27T14:07:52.762Z,52.90
2022-11-27T14:10:25.006Z,53.00
2022-11-27T14:13:10.341Z,53.00
2022-11-27T14:15:38.929Z,53.20
2022-11-27T14:18:14.907Z,53.50
2022-11-27T14:20:47.224Z,53.70
2022-11-27T14:23:14.347Z,54.10
2022-11-27T14:25:41.828Z,53.90
2022-11-27T14:28:21.993Z,54.00
2022-11-27T14:30:52.390Z,54.30
2022-11-27T14:33:24.987Z,54.50
2022-11-27T14:35:55.290Z,54.40
2022-11-27T14:38:24.503Z,54.40
2022-11-27T14:40:55.776Z,54.40
2022-11-27T14:43:26.161Z,54.70
2022-11-27T14:45:56.263Z,54.70
2022-11-27T14:48:25.794Z,54.70
2022-11-27T14:50:54.919Z,54.70
2022-11-27T14:53:25.244Z,54.70
2022-11-27T14:55:57.211Z,54.70
2022-11-27T14:58:29.299Z,54.70
2022-11-27T15:01:07.910Z,54.70
2022-11-27T15:03:35.062Z,54.70
2022-11-27T15:06:07.241Z,54.70
2022-11-27T15:08:36.326Z,55.30
2022-11-27T15:11:05.580Z,54.90
2022-11-27T15:13:37.591Z,55.00
2022-11-27T15:16:13.873Z,55.20
2022-11-27T15:18:42.992Z,55.50
2022-11-27T15:21:12.792Z,55.50
2022-11-27T15:23:49.729Z,55.50
2022-11-27T15:26:31.966Z,55.30
2022-11-27T15:28:59.591Z,55.30
2022-11-27T15:31:37.470Z,55.40
2022-11-27T15:34:23.716Z,55.40
2022-11-27T15:37:06.291Z,55.50
2022-11-27T15:39:52.144Z,55.50
2022-11-27T15:42:20.258Z,55.40
2022-11-27T15:44:49.859Z,55.40
2022-11-27T15:47:22.653Z,55.50
2022-11-27T15:49:50.367Z,55.80
2022-11-27T15:52:17.336Z,55.70
2022-11-27T15:54:44.600Z,55.80
2022-11-27T15:57:12.903Z,55.80
2022-11-27T15:59:40.186Z,56.60
2022-11-27T16:02:07.479Z,56.10
2022-11-27T16:04:34.753Z,56.10
2022-11-27T16:07:01.695Z,56.10
2022-11-27T16:09:28.759Z,56.30
2022-11-27T16:11:55.751Z,56.40
2022-11-27T16:14:23.237Z,56.50
2022-11-27T16:16:50.762Z,56.50
2022-11-27T16:19:17.833Z,56.40
2022-11-27T16:21:44.871Z,56.50
2022-11-27T16:24:14.428Z,56.70
2022-11-27T16:26:42.021Z,56.80
2022-11-27T16:29:10.619Z,57.00
2022-11-27T16:31:37.592Z,56.80
2022-11-27T16:34:06.032Z,57.00
2022-11-27T16:36:34.373Z,56.80
2022-11-27T16:39:02.545Z,56.90
2022-11-27T16:41:29.542Z,56.90
2022-11-27T16:43:57.637Z,57.10
2022-11-27T16:46:28.448Z,57.30
2022-11-27T16:48:57.178Z,57.20
2022-11-27T16:51:28.426Z,57.10
2022-11-27T16:53:57.295Z,57.10
2022-11-27T16:56:27.981Z,57.20
2022-11-27T16:59:02.204Z,57.30
2022-11-27T17:01:36.120Z,57.20
2022-11-27T17:04:09.180Z,57.30
2022-11-27T17:06:38.255Z,57.40
2022-11-27T17:09:07.337Z,57.30
2022-11-27T17:11:36.715Z,57.50
2022-11-27T17:14:08.846Z,57.60
2022-11-27T17:16:37.132Z,57.70
2022-11-27T17:19:06.328Z,57.70
2022-11-27T17:21:35.796Z,57.70
2022-11-27T17:24:13.183Z,57.70
2022-11-27T17:26:44.028Z,57.80
2022-11-27T17:29:13.683Z,57.90
2022-11-27T17:31:42.316Z,57.90
2022-11-27T17:34:13.424Z,58.00
2022-11-27T17:36:43.064Z,58.10
2022-11-27T17:39:13.385Z,58.10
2022-11-27T17:41:41.484Z,58.20
2022-11-27T17:44:08.643Z,58.20
2022-11-27T17:46:37.037Z,58.20
2022-11-27T17:49:07.345Z,58.40
2022-11-27T17:51:35.648Z,58.30
2022-11-27T17:54:03.927Z,58.40
2022-11-27T17:56:32.879Z,58.50
2022-11-27T17:59:00.027Z,58.60
2022-11-27T18:01:29.274Z,58.60
2022-11-27T18:04:00.515Z,58.70
2022-11-27T18:06:30.183Z,58.70
2022-11-27T18:08:59.387Z,58.80
2022-11-27T18:11:30.144Z,58.90
2022-11-27T18:13:59.939Z,59.00
2022-11-27T18:16:35.018Z,59.30
2022-11-27T18:19:08.070Z,59.20
2022-11-27T18:21:37.176Z,59.30
2022-11-27T18:27:11.321Z,59.50
2022-11-27T18:29:40.803Z,59.50
2022-11-27T18:32:08.950Z,59.60
2022-11-27T18:34:36.093Z,59.50
2022-11-27T18:37:03.856Z,59.50
2022-11-27T18:39:31.751Z,59.60
2022-11-27T18:41:58.816Z,59.70
2022-11-27T18:44:27.188Z,59.80
2022-11-27T18:46:55.068Z,59.70
2022-11-27T18:49:23.353Z,59.80
2022-11-27T18:51:52.589Z,59.80
2022-11-27T18:54:20.341Z,60.00
2022-11-27T18:56:48.125Z,60.10
2022-11-27T18:59:15.387Z,60.10
2022-11-27T19:01:42.955Z,60.40
2022-11-27T19:04:11.577Z,60.40
2022-11-27T19:06:39.571Z,60.30
2022-11-27T19:09:07.022Z,60.30
2022-11-27T19:11:35.249Z,60.40
2022-11-27T19:14:04.446Z,60.50
2022-11-27T19:16:34.796Z,60.50
2022-11-27T19:19:04.452Z,60.40
2022-11-27T19:21:33.812Z,60.40
2022-11-27T19:24:03.143Z,60.50
2022-11-27T19:26:33.902Z,60.70
2022-11-27T19:29:05.828Z,60.50
2022-11-27T19:31:33.888Z,60.30
2022-11-27T19:34:02.516Z,60.40
2022-11-27T19:36:31.480Z,60.50
2022-11-27T19:39:08.090Z,60.50
2022-11-27T19:41:35.452Z,60.60
2022-11-27T19:44:04.787Z,60.60
2022-11-27T19:46:37.606Z,61.50
2022-11-27T19:49:12.758Z,60.40
2022-11-27T19:51:40.642Z,60.50
2022-11-27T19:54:12.814Z,60.70
2022-11-27T19:56:42.339Z,60.40
2022-11-27T19:59:10.730Z,60.60
2022-11-27T20:01:40.835Z,60.60
2022-11-27T20:04:11.104Z,60.60
2022-11-27T20:06:38.896Z,60.80
2022-11-27T20:09:06.838Z,60.90
2022-11-27T20:11:35.652Z,61.10
2022-11-27T20:14:05.596Z,61.30
2022-11-27T20:16:35.186Z,61.50
2022-11-27T20:19:05.706Z,61.80
2022-11-27T20:21:36.622Z,61.80
2022-11-27T20:24:04.535Z,62.10
2022-11-27T20:26:37.201Z,62.10
2022-11-27T20:29:07.711Z,62.10
2022-11-27T20:31:37.704Z,62.50
2022-11-27T20:34:07.018Z,62.40
2022-11-27T20:36:38.462Z,62.50
2022-11-27T20:39:05.608Z,63.00
2022-11-27T20:41:32.665Z,63.20
2022-11-27T20:44:01.748Z,63.20
2022-11-27T20:46:31.607Z,63.20
2022-11-27T20:48:59.926Z,63.20
2022-11-27T20:51:33.419Z,63.20
2022-11-27T20:54:07.575Z,63.50
2022-11-27T20:56:34.804Z,63.30
2022-11-27T20:59:02.061Z,63.50
2022-11-27T21:01:34.943Z,63.70
2022-11-27T21:04:09.309Z,63.50
2022-11-27T21:06:43.500Z,63.30
2022-11-27T21:09:14.257Z,63.40
2022-11-27T21:11:42.957Z,63.40
2022-11-27T21:14:12.087Z,63.40
2022-11-27T21:16:47.201Z,63.30
2022-11-27T21:19:18.507Z,63.60
2022-11-27T21:21:47.413Z,64.60
2022-11-27T21:24:14.625Z,63.60
2022-11-27T21:26:42.190Z,63.70
2022-11-27T21:29:10.801Z,63.80
2022-11-27T21:31:42.651Z,63.70
2022-11-27T21:34:14.426Z,64.00
2022-11-27T21:36:41.647Z,64.10
2022-11-27T21:39:11.440Z,64.20
2022-11-27T21:41:38.725Z,64.60
2022-11-27T21:44:06.473Z,64.60
2022-11-27T21:46:37.983Z,64.40
2022-11-27T21:49:06.419Z,64.80
2022-11-27T21:51:33.613Z,65.10
2022-11-27T21:54:07.460Z,64.80
2022-11-27T21:56:37.688Z,64.50
2022-11-27T21:59:05.343Z,64.80
2022-11-27T22:01:32.778Z,65.10
2022-11-27T22:04:01.501Z,65.50
2022-11-27T22:06:30.972Z,65.50
2022-11-27T22:08:59.096Z,65.60
2022-11-27T22:11:30.958Z,65.40
2022-11-27T22:14:02.391Z,65.20
2022-11-27T22:16:32.765Z,66.00
2022-11-27T22:19:00.320Z,65.10
2022-11-27T22:21:28.974Z,65.40
2022-11-27T22:23:57.191Z,65.10
2022-11-27T22:26:25.407Z,65.40
2022-11-27T22:28:53.344Z,65.30
2022-11-27T22:31:24.210Z,65.40
2022-11-27T22:33:52.350Z,65.30
2022-11-27T22:36:30.380Z,65.20
2022-11-27T22:39:06.155Z,65.10
2022-11-27T22:41:36.750Z,65.00
2022-11-27T22:44:15.339Z,64.80
2022-11-27T22:46:43.181Z,64.80
2022-11-27T22:49:13.222Z,65.60
2022-11-27T22:51:41.582Z,64.80
2022-11-27T22:54:13.326Z,64.90
2022-11-27T22:56:45.692Z,64.60
2022-11-27T23:02:04.073Z,64.50
2022-11-27T23:04:32.968Z,64.60
2022-11-27T23:07:00.428Z,64.50
2022-11-27T23:09:33.255Z,64.50
2022-11-27T23:12:01.992Z,64.40
2022-11-27T23:14:29.585Z,64.30
2022-11-27T23:17:00.230Z,64.40
2022-11-27T23:19:27.887Z,64.30
2022-11-27T23:21:55.977Z,64.30
2022-11-27T23:24:24.912Z,64.30
2022-11-27T23:26:52.529Z,64.30
2022-11-27T23:29:20.505Z,64.30
2022-11-27T23:31:48.066Z,64.30
2022-11-27T23:34:16.891Z,64.30
2022-11-27T23:36:47.494Z,64.20
2022-11-27T23:39:17.999Z,64.40
2022-11-27T23:41:49.813Z,64.30
2022-11-27T23:44:17.146Z,64.30
2022-11-27T23:46:44.445Z,64.40
2022-11-27T23:49:11.950Z,64.40
2022-11-27T23:51:40.001Z,64.40
2022-11-27T23:54:09.726Z,64.50
2022-11-27T23:56:38.734Z,64.40
2022-11-27T23:59:06.424Z,64.40
